createdAt,value
2019-06-10T00:02:07.255Z,18.70
2019-06-10T00:04:37.556Z,18.70
2019-06-10T00:07:11.842Z,18.60
2019-06-10T00:09:41.435Z,18.60
2019-06-10T00:12:12.768Z,18.60
2019-06-10T00:14:43.021Z,18.60
2019-06-10T00:17:13.198Z,18.50
2019-06-10T00:19:43.300Z,18.50
2019-06-10T00:22:13.703Z,18.50
2019-06-10T00:24:43.956Z,18.50
2019-06-10T00:27:14.293Z,18.50
2019-06-10T00:29:44.380Z,18.40
2019-06-10T00:32:14.738Z,18.40
2019-06-10T00:34:45.267Z,18.40
2019-06-10T00:37:15.315Z,18.40
2019-06-10T00:39:45.367Z,18.40
2019-06-10T00:42:15.558Z,18.40
2019-06-10T00:44:45.656Z,18.30
2019-06-10T00:47:15.773Z,18.30
2019-06-10T00:49:45.973Z,18.30
2019-06-10T00:52:15.951Z,18.30
2019-06-10T00:54:46.221Z,18.20
2019-06-10T00:57:16.833Z,18.20
2019-06-10T00:59:47.546Z,18.20
2019-06-10T01:02:17.904Z,18.20
2019-06-10T01:04:48.203Z,18.20
2019-06-10T01:07:18.704Z,18.20
2019-06-10T01:09:48.829Z,18.20
2019-06-10T01:12:20.997Z,18.20
2019-06-10T01:14:51.721Z,18.10
2019-06-10T01:17:22.452Z,18.10
2019-06-10T01:19:53.085Z,18.10
2019-06-10T01:22:23.145Z,18.10
2019-06-10T01:24:53.189Z,18.00
2019-06-10T01:27:23.256Z,18.00
2019-06-10T01:29:54.003Z,18.10
2019-06-10T01:32:24.010Z,18.10
2019-06-10T01:34:54.661Z,18.10
2019-06-10T01:37:24.818Z,18.10
2019-06-10T01:39:54.846Z,18.10
2019-06-10T01:42:24.916Z,18.00
2019-06-10T01:44:54.937Z,18.00
2019-06-10T01:47:25.273Z,18.00
2019-06-10T01:49:55.304Z,18.00
2019-06-10T01:52:25.379Z,18.00
2019-06-10T01:54:55.522Z,18.00
2019-06-10T01:57:26.094Z,17.90
2019-06-10T01:59:56.437Z,18.00
2019-06-10T02:02:26.638Z,17.90
2019-06-10T02:04:56.767Z,17.90
2019-06-10T02:07:26.885Z,17.80
2019-06-10T02:09:56.976Z,17.80
2019-06-10T02:12:27.121Z,17.80
2019-06-10T02:14:57.300Z,17.90
2019-06-10T02:17:27.993Z,17.80
2019-06-10T02:19:58.042Z,17.80
2019-06-10T02:22:28.049Z,17.80
2019-06-10T02:24:58.333Z,17.70
2019-06-10T02:27:28.296Z,17.70
2019-06-10T02:29:58.380Z,17.70
2019-06-10T02:32:33.012Z,17.60
2019-06-10T02:35:08.838Z,17.60
2019-06-10T02:37:37.739Z,17.60
2019-06-10T02:40:04.862Z,17.60
2019-06-10T02:42:39.421Z,17.60
2019-06-10T02:45:13.823Z,17.50
2019-06-10T02:47:44.417Z,17.40
2019-06-10T02:50:17.212Z,17.40
2019-06-10T02:52:46.094Z,17.30
2019-06-10T02:55:19.547Z,17.30
2019-06-10T02:57:48.275Z,17.20
2019-06-10T03:00:26.766Z,17.20
2019-06-10T03:02:52.923Z,17.10
2019-06-10T03:05:29.698Z,17.10
2019-06-10T03:07:53.720Z,17.10
2019-06-10T03:10:30.128Z,17.10
2019-06-10T03:12:55.503Z,17.20
2019-06-10T03:15:26.747Z,17.20
2019-06-10T03:17:57.139Z,17.20
2019-06-10T03:20:28.410Z,17.20
2019-06-10T03:22:58.538Z,17.30
2019-06-10T03:25:28.970Z,17.30
2019-06-10T03:27:59.481Z,17.30
2019-06-10T03:30:46.454Z,17.30
2019-06-10T03:33:04.823Z,17.30
2019-06-10T03:35:33.249Z,17.30
2019-06-10T03:38:03.502Z,17.30
2019-06-10T03:40:33.460Z,17.30
2019-06-10T03:43:03.529Z,17.30
2019-06-10T03:45:33.745Z,17.30
2019-06-10T03:48:04.244Z,17.30
2019-06-10T03:50:34.400Z,17.20
2019-06-10T03:53:05.180Z,17.20
2019-06-10T03:55:35.374Z,17.20
2019-06-10T03:58:05.644Z,17.20
2019-06-10T04:00:36.990Z,17.20
2019-06-10T04:03:07.195Z,17.30
2019-06-10T04:05:37.291Z,17.30
2019-06-10T04:08:07.957Z,17.30
2019-06-10T04:10:38.062Z,17.40
2019-06-10T04:13:08.583Z,17.40
2019-06-10T04:15:38.793Z,17.50
2019-06-10T04:18:09.453Z,17.70
2019-06-10T04:20:42.932Z,17.80
2019-06-10T04:23:12.587Z,18.00
2019-06-10T04:25:44.416Z,18.20
2019-06-10T04:28:14.731Z,18.40
2019-06-10T04:30:45.139Z,18.40
2019-06-10T04:33:15.490Z,18.30
2019-06-10T04:35:45.514Z,18.30
2019-06-10T04:38:15.598Z,18.20
2019-06-10T04:40:45.748Z,18.30
2019-06-10T04:43:15.749Z,18.30
2019-06-10T04:45:45.749Z,18.20
2019-06-10T04:48:16.239Z,18.10
2019-06-10T04:50:46.647Z,18.20
2019-06-10T04:53:16.865Z,18.30
2019-06-10T04:55:47.049Z,18.50
2019-06-10T04:58:17.249Z,18.70
2019-06-10T05:00:47.353Z,18.80
2019-06-10T05:03:18.896Z,18.90
2019-06-10T05:05:49.303Z,19.20
2019-06-10T05:08:19.384Z,19.60
2019-06-10T05:10:49.760Z,20.20
2019-06-10T05:13:21.835Z,21.20
2019-06-10T05:15:52.703Z,21.70
2019-06-10T05:18:25.506Z,22.30
2019-06-10T05:20:58.567Z,23.10
2019-06-10T05:23:27.860Z,23.60
2019-06-10T05:25:58.134Z,23.00
2019-06-10T05:28:28.741Z,22.90
2019-06-10T05:30:59.042Z,23.50
2019-06-10T05:33:29.100Z,24.40
2019-06-10T05:35:59.334Z,25.60
2019-06-10T05:38:31.269Z,26.70
2019-06-10T05:41:02.963Z,27.40
2019-06-10T05:43:34.655Z,26.40
2019-06-10T05:46:05.232Z,26.20
2019-06-10T05:48:35.267Z,25.30
2019-06-10T05:51:06.916Z,25.40
2019-06-10T05:53:37.275Z,25.20
2019-06-10T05:56:07.736Z,24.70
2019-06-10T05:58:37.798Z,24.40
2019-06-10T06:01:08.088Z,24.50
2019-06-10T06:03:38.234Z,24.70
2019-06-10T06:06:08.657Z,24.70
2019-06-10T06:08:39.051Z,24.50
2019-06-10T06:11:09.361Z,24.20
2019-06-10T06:13:39.801Z,23.70
2019-06-10T06:16:12.351Z,23.20
2019-06-10T06:18:42.189Z,22.80
2019-06-10T06:21:25.373Z,22.30
2019-06-10T06:23:44.768Z,21.90
2019-06-10T06:26:16.270Z,21.60
2019-06-10T06:28:46.412Z,21.20
2019-06-10T06:31:16.604Z,21.00
2019-06-10T06:33:46.735Z,21.00
2019-06-10T06:36:16.935Z,21.20
2019-06-10T06:38:47.098Z,21.50
2019-06-10T06:41:17.813Z,21.80
2019-06-10T06:43:48.673Z,22.20
2019-06-10T06:46:18.938Z,22.70
2019-06-10T06:48:49.055Z,23.00
2019-06-10T06:51:35.518Z,24.50
2019-06-10T06:53:55.438Z,26.30
2019-06-10T06:56:23.409Z,28.60
2019-06-10T06:58:53.425Z,31.20
2019-06-10T07:01:25.967Z,33.50
2019-06-10T07:03:56.025Z,34.80
2019-06-10T07:06:26.303Z,35.20
2019-06-10T07:09:04.030Z,33.60
2019-06-10T07:11:34.554Z,32.20
2019-06-10T07:14:05.490Z,32.20
2019-06-10T07:16:38.999Z,31.60
2019-06-10T07:19:15.233Z,31.40
2019-06-10T07:22:05.360Z,30.70
2019-06-10T07:24:17.906Z,30.40
2019-06-10T07:26:52.163Z,29.30
2019-06-10T07:29:22.434Z,29.20
2019-06-10T07:31:53.572Z,31.10
2019-06-10T07:34:23.359Z,32.50
2019-06-10T07:36:53.592Z,32.90
2019-06-10T07:39:23.777Z,32.90
2019-06-10T07:41:53.623Z,32.70
2019-06-10T07:44:23.687Z,31.40
2019-06-10T07:46:53.666Z,30.20
2019-06-10T07:49:23.957Z,29.90
2019-06-10T07:51:54.233Z,29.80
2019-06-10T07:54:24.519Z,31.30
2019-06-10T07:56:54.576Z,33.60
2019-06-10T07:59:24.797Z,36.50
2019-06-10T08:01:55.494Z,38.40
2019-06-10T08:04:25.543Z,39.40
2019-06-10T08:06:55.704Z,40.00
2019-06-10T08:09:25.677Z,40.70
2019-06-10T08:11:55.957Z,40.90
2019-06-10T08:14:26.431Z,40.80
2019-06-10T08:16:56.441Z,41.00
2019-06-10T08:19:34.971Z,41.10
2019-06-10T08:21:58.788Z,41.40
2019-06-10T08:24:28.874Z,41.00
2019-06-10T08:26:58.952Z,41.20
2019-06-10T08:29:29.334Z,42.00
2019-06-10T08:31:59.386Z,42.70
2019-06-10T08:34:29.509Z,43.10
2019-06-10T08:36:59.528Z,43.50
2019-06-10T08:39:29.615Z,43.20
2019-06-10T08:41:59.750Z,43.60
2019-06-10T08:44:32.595Z,43.40
2019-06-10T08:47:03.142Z,41.90
2019-06-10T08:49:33.668Z,42.70
2019-06-10T08:52:03.883Z,43.30
2019-06-10T08:54:34.198Z,42.90
2019-06-10T08:57:04.700Z,42.70
2019-06-10T08:59:34.760Z,43.60
2019-06-10T09:02:04.870Z,44.50
2019-06-10T09:04:35.150Z,44.70
2019-06-10T09:07:05.543Z,44.90
2019-06-10T09:09:40.506Z,44.40
2019-06-10T09:12:28.392Z,43.60
2019-06-10T09:14:44.069Z,43.60
2019-06-10T09:17:15.106Z,44.00
2019-06-10T09:19:47.887Z,44.60
2019-06-10T09:22:17.220Z,44.80
2019-06-10T09:24:52.381Z,45.10
2019-06-10T09:27:26.091Z,45.00
2019-06-10T09:29:56.147Z,45.90
2019-06-10T09:32:32.483Z,46.50
2019-06-10T09:35:12.611Z,44.30
2019-06-10T09:37:55.717Z,45.20
2019-06-10T09:40:48.380Z,45.00
2019-06-10T09:43:15.450Z,45.50
2019-06-10T09:45:50.214Z,45.40
2019-06-10T09:48:24.454Z,44.50
2019-06-10T09:50:58.487Z,43.60
2019-06-10T09:53:39.087Z,44.30
2019-06-10T09:55:59.171Z,43.00
2019-06-10T09:58:33.606Z,43.40
2019-06-10T10:01:19.043Z,45.50
2019-06-10T10:03:50.218Z,45.30
2019-06-10T10:06:17.679Z,46.50
2019-06-10T10:08:52.376Z,47.20
2019-06-10T10:11:21.249Z,46.60
2019-06-10T10:13:52.703Z,46.10
2019-06-10T10:16:23.209Z,46.80
2019-06-10T10:19:00.160Z,47.80
2019-06-10T10:21:28.496Z,47.40
2019-06-10T10:24:08.072Z,46.90
2019-06-10T10:26:35.178Z,46.30
2019-06-10T10:29:05.742Z,45.70
2019-06-10T10:31:36.247Z,45.30
2019-06-10T10:34:06.362Z,44.20
2019-06-10T10:36:36.484Z,44.30
2019-06-10T10:39:09.678Z,44.10
2019-06-10T10:41:43.179Z,43.40
2019-06-10T10:44:13.851Z,43.30
2019-06-10T10:46:47.461Z,42.80
2019-06-10T10:49:17.630Z,41.00
2019-06-10T10:51:49.048Z,38.70
2019-06-10T10:54:32.177Z,36.60
2019-06-10T10:56:58.663Z,34.90
2019-06-10T10:59:24.548Z,33.70
2019-06-10T11:01:56.993Z,32.80
2019-06-10T11:04:27.459Z,32.20
2019-06-10T11:07:00.410Z,31.50
2019-06-10T11:09:32.881Z,31.20
2019-06-10T11:12:03.586Z,31.20
2019-06-10T11:14:34.248Z,31.30
2019-06-10T11:17:04.295Z,31.30
2019-06-10T11:19:35.386Z,31.40
2019-06-10T11:22:05.459Z,31.40
2019-06-10T11:24:40.826Z,31.20
2019-06-10T11:27:07.774Z,30.90
2019-06-10T11:29:37.853Z,30.90
2019-06-10T11:32:07.893Z,31.10
2019-06-10T11:34:37.872Z,31.00
2019-06-10T11:37:08.242Z,30.90
2019-06-10T11:39:38.806Z,30.90
2019-06-10T11:42:10.321Z,30.50
2019-06-10T11:44:42.502Z,30.10
2019-06-10T11:47:13.252Z,29.80
2019-06-10T11:49:48.943Z,29.70
2019-06-10T11:52:19.611Z,29.90
2019-06-10T11:55:05.616Z,29.70
2019-06-10T11:57:27.490Z,29.80
2019-06-10T11:59:59.490Z,29.70
2019-06-10T12:02:30.366Z,29.70
2019-06-10T12:05:03.514Z,29.90
2019-06-10T12:07:34.952Z,30.20
2019-06-10T12:10:07.103Z,30.40
2019-06-10T12:12:38.094Z,30.60
2019-06-10T12:15:12.014Z,30.90
2019-06-10T12:17:50.796Z,30.90
2019-06-10T12:20:18.282Z,30.40
2019-06-10T12:23:02.115Z,30.10
2019-06-10T12:25:39.291Z,30.20
2019-06-10T12:28:16.962Z,30.30
2019-06-10T12:30:59.246Z,30.50
2019-06-10T12:33:29.023Z,30.40
2019-06-10T12:36:01.480Z,30.20
2019-06-10T12:38:33.544Z,30.20
2019-06-10T12:41:36.666Z,30.00
2019-06-10T12:44:13.262Z,29.80
2019-06-10T12:46:45.865Z,29.90
2019-06-10T12:49:18.730Z,29.90
2019-06-10T12:52:16.609Z,30.10
2019-06-10T12:57:59.860Z,30.30
2019-06-10T13:00:34.914Z,30.50
2019-06-10T13:03:05.459Z,30.50
2019-06-10T13:05:42.349Z,30.60
2019-06-10T13:08:11.275Z,31.00
2019-06-10T13:10:47.644Z,30.90
2019-06-10T13:13:22.709Z,30.70
2019-06-10T13:15:53.799Z,30.30
2019-06-10T13:18:25.773Z,30.30
2019-06-10T13:20:57.273Z,30.00
2019-06-10T13:23:31.979Z,30.00
2019-06-10T13:26:03.195Z,29.90
2019-06-10T13:28:32.505Z,29.70
2019-06-10T13:31:06.242Z,29.50
2019-06-10T13:33:35.364Z,29.30
2019-06-10T13:36:06.913Z,29.20
2019-06-10T13:38:37.217Z,29.10
2019-06-10T13:41:08.136Z,29.20
2019-06-10T13:43:52.522Z,29.20
2019-06-10T13:46:24.469Z,29.30
2019-06-10T13:48:53.792Z,29.30
2019-06-10T13:51:23.705Z,29.30
2019-06-10T13:53:54.002Z,29.30
2019-06-10T13:56:43.019Z,29.60
2019-06-10T13:58:55.560Z,29.70
2019-06-10T14:01:25.541Z,29.70
2019-06-10T14:03:55.951Z,29.90
2019-06-10T14:06:39.725Z,30.10
2019-06-10T14:08:57.937Z,30.00
2019-06-10T14:11:30.095Z,29.90
2019-06-10T14:14:01.254Z,29.90
2019-06-10T14:16:33.125Z,29.90
2019-06-10T14:19:05.813Z,30.00
2019-06-10T14:21:35.147Z,29.90
2019-06-10T14:24:06.180Z,29.80
2019-06-10T14:26:42.104Z,29.50
2019-06-10T14:29:15.958Z,29.20
2019-06-10T14:31:47.737Z,29.00
2019-06-10T14:34:29.126Z,29.00
2019-06-10T14:37:00.854Z,29.10
2019-06-10T14:39:32.930Z,29.10
2019-06-10T14:42:05.263Z,28.90
2019-06-10T14:44:42.242Z,28.80
2019-06-10T14:47:14.006Z,28.90
2019-06-10T14:49:53.156Z,28.80
2019-06-10T14:52:26.062Z,28.90
2019-06-10T14:54:57.659Z,29.10
2019-06-10T14:57:28.162Z,29.10
2019-06-10T15:00:03.713Z,28.90
2019-06-10T15:02:34.184Z,29.00
2019-06-10T15:05:04.789Z,29.00
2019-06-10T15:07:35.010Z,29.00
2019-06-10T15:10:05.928Z,28.90
2019-06-10T15:12:36.025Z,28.70
2019-06-10T15:15:08.058Z,28.70
2019-06-10T15:17:43.191Z,28.60
2019-06-10T15:20:32.981Z,28.40
2019-06-10T15:23:36.388Z,28.30
2019-06-10T15:26:42.156Z,28.30
2019-06-10T15:29:11.168Z,28.40
2019-06-10T15:31:46.733Z,28.40
2019-06-10T15:34:29.591Z,28.40
2019-06-10T15:37:21.273Z,28.30
2019-06-10T15:40:32.737Z,28.00
2019-06-10T15:43:17.943Z,27.90
2019-06-10T15:45:54.277Z,28.00
2019-06-10T15:52:15.509Z,28.10
2019-06-10T15:54:45.148Z,27.90
2019-06-10T15:57:30.754Z,27.70
2019-06-10T15:59:47.560Z,27.70
2019-06-10T16:02:29.971Z,27.80
2019-06-10T16:05:01.302Z,27.80
2019-06-10T16:07:42.344Z,27.60
2019-06-10T16:10:18.968Z,27.40
2019-06-10T16:12:54.455Z,27.50
2019-06-10T16:15:32.906Z,27.60
2019-06-10T16:18:17.129Z,27.60
2019-06-10T16:20:43.022Z,27.50
2019-06-10T16:23:17.602Z,27.50
2019-06-10T16:25:57.509Z,27.50
2019-06-10T16:28:32.839Z,27.50
2019-06-10T16:31:16.608Z,27.30
2019-06-10T16:33:52.733Z,27.30
2019-06-10T16:36:42.630Z,27.20
2019-06-10T16:39:25.651Z,27.30
2019-06-10T16:41:56.713Z,27.40
2019-06-10T16:44:28.309Z,27.30
2019-06-10T16:47:03.041Z,27.10
2019-06-10T16:49:45.424Z,27.00
2019-06-10T16:53:17.787Z,26.80
2019-06-10T16:55:49.189Z,26.70
2019-06-10T17:02:34.434Z,26.30
2019-06-10T17:05:05.325Z,26.10
2019-06-10T17:07:35.964Z,25.90
2019-06-10T17:10:07.382Z,25.70
2019-06-10T17:16:43.657Z,25.50
2019-06-10T17:19:27.367Z,25.30
2019-06-10T17:21:56.192Z,25.20
2019-06-10T17:24:29.455Z,25.20
2019-06-10T17:26:59.526Z,25.20
2019-06-10T17:32:56.462Z,25.20
2019-06-10T17:45:28.812Z,25.30
2019-06-10T17:48:03.123Z,25.20
2019-06-10T17:50:42.873Z,25.00
2019-06-10T17:56:45.491Z,24.80
2019-06-10T17:59:12.863Z,24.80
2019-06-10T18:01:44.782Z,24.70
2019-06-10T18:04:37.029Z,24.60
2019-06-10T18:08:13.505Z,24.60
2019-06-10T18:11:07.590Z,24.50
2019-06-10T18:13:47.699Z,24.40
2019-06-10T18:19:38.983Z,24.10
2019-06-10T18:22:09.332Z,24.00
2019-06-10T18:24:42.904Z,23.90
2019-06-10T18:27:14.538Z,23.80
2019-06-10T18:29:50.022Z,23.70
2019-06-10T18:32:22.735Z,23.60
2019-06-10T18:34:52.159Z,23.60
2019-06-10T18:37:23.636Z,23.50
2019-06-10T18:40:03.844Z,23.60
2019-06-10T18:42:39.008Z,23.50
2019-06-10T18:45:52.984Z,23.60
2019-06-10T18:49:08.372Z,23.60
2019-06-10T18:55:31.396Z,23.70
2019-06-10T18:59:13.492Z,23.70
2019-06-10T19:01:43.201Z,23.70
2019-06-10T19:08:02.286Z,23.70
2019-06-10T19:11:24.503Z,23.70
2019-06-10T19:20:58.654Z,23.70
2019-06-10T19:23:47.651Z,23.60
2019-06-10T19:26:48.383Z,23.40
2019-06-10T19:32:54.375Z,23.20
2019-06-10T19:39:08.941Z,23.00
2019-06-10T19:41:41.101Z,23.00
2019-06-10T19:44:37.067Z,23.00
2019-06-10T19:47:07.583Z,22.90
2019-06-10T19:49:41.199Z,22.90
2019-06-10T19:52:23.618Z,22.90
2019-06-10T19:55:13.197Z,22.80
2019-06-10T19:57:39.547Z,22.80
2019-06-10T20:00:14.082Z,22.70
2019-06-10T20:02:57.929Z,22.70
2019-06-10T20:05:32.628Z,22.70
2019-06-10T20:09:02.718Z,22.60
2019-06-10T20:11:41.027Z,22.60
2019-06-10T20:14:12.826Z,22.60
2019-06-10T20:21:51.453Z,22.40
2019-06-10T20:24:16.619Z,22.30
2019-06-10T20:27:43.764Z,22.10
2019-06-10T20:33:47.574Z,21.60
2019-06-10T20:36:27.295Z,21.40
2019-06-10T20:39:01.818Z,21.30
2019-06-10T20:41:55.771Z,21.20
2019-06-10T20:44:43.251Z,21.20
2019-06-10T20:49:07.212Z,21.10
2019-06-10T20:55:51.046Z,21.00
2019-06-10T20:58:25.244Z,21.00
2019-06-10T21:00:57.414Z,21.00
2019-06-10T21:03:37.373Z,21.00
2019-06-10T21:06:09.437Z,21.00
2019-06-10T21:08:47.721Z,21.00
2019-06-10T21:26:23.635Z,20.80
2019-06-10T21:29:12.850Z,20.80
2019-06-10T21:31:55.037Z,20.80
2019-06-10T21:34:32.693Z,20.80
2019-06-10T21:37:05.210Z,20.80
2019-06-10T21:40:12.787Z,20.80
2019-06-10T21:45:42.887Z,20.70
2019-06-10T21:48:57.348Z,20.60
2019-06-10T21:51:06.021Z,20.50
2019-06-10T21:53:39.725Z,20.40
2019-06-10T21:56:24.589Z,20.20
2019-06-10T21:58:58.289Z,20.10
2019-06-10T22:02:18.388Z,20.10
2019-06-10T22:04:53.830Z,20.00
2019-06-10T22:07:34.637Z,20.10
2019-06-10T22:10:06.098Z,20.10
2019-06-10T22:12:44.051Z,20.10
2019-06-10T22:15:23.801Z,20.00
2019-06-10T22:17:55.946Z,19.90
2019-06-10T22:20:32.468Z,19.90
2019-06-10T22:23:09.028Z,19.90
2019-06-10T22:25:39.710Z,19.80
2019-06-10T22:28:13.084Z,19.80
2019-06-10T22:30:45.090Z,19.90
2019-06-10T22:33:15.672Z,19.90
2019-06-10T22:35:47.577Z,19.90
2019-06-10T22:38:22.284Z,19.90
2019-06-10T22:40:57.036Z,19.90
2019-06-10T22:43:42.543Z,19.90
2019-06-10T22:46:18.011Z,19.80
2019-06-10T22:48:51.161Z,19.70
2019-06-10T22:51:22.763Z,19.70
2019-06-10T22:53:58.394Z,19.70
2019-06-10T22:56:36.131Z,19.80
2019-06-10T22:59:08.584Z,19.80
2019-06-10T23:01:42.364Z,19.80
2019-06-10T23:04:14.016Z,19.90
2019-06-10T23:06:48.273Z,19.90
2019-06-10T23:09:22.198Z,20.00
2019-06-10T23:11:56.439Z,20.00
2019-06-10T23:14:27.788Z,20.00
2019-06-10T23:18:00.264Z,20.00
2019-06-10T23:20:57.937Z,20.10
2019-06-10T23:24:22.657Z,20.00
2019-06-10T23:26:43.437Z,20.00
2019-06-10T23:29:19.669Z,20.00
2019-06-10T23:31:55.522Z,20.00
2019-06-10T23:38:33.031Z,20.10
2019-06-10T23:41:13.005Z,20.00
2019-06-10T23:43:55.034Z,20.00
2019-06-10T23:46:28.804Z,19.90
2019-06-10T23:53:18.479Z,19.80
2019-06-10T23:55:56.220Z,19.90
2019-06-10T23:58:55.567Z,20.00
